Terminal Aerodrome Forecast
Issued by NWS

Home | Current Version | Previous Version | Text Only | Print | Product List | Glossary On
Versions: 1 2 3 4 5 6 7 8 9 10 11 12 13 14 15 16 17 18 19 20 21 22 23 24 25 26 27 28 29 30 31 32 33 34 35 36 37 38 39 40 41 42 43
000
FTAK31 PANC 311121
TAFADU
TAF
PADU 311121Z 3112/0112 VRB03KT 2SM BR OVC003
      TEMPO 3112/3116 1/2SM FG OVC001
     FM312000 10006KT P6SM FEW003 BKN015
     FM010000 11005KT P6SM FEW015 SCT035
     FM010800 VRB04KT 3SM BR SCT003 BKN009=

USA.gov is the U.S. government's official web portal to all federal, state and local government web resources and services.